X  Sluiten METAR luchtvaart weer gegevens      EHRD Rotterdam The Hague Airport
Temperatuur
7°C Temperatuur
7°C Dauwpunt
100% Vochtigheid



Wind
2 KM/U
1 MPH
0 M/S
1 KTS



Kalm
Noord
Huidig weer

Helder Helder
Luchtdruk 1027.92 (hPa) - 30.35 (inHg)
Zicht 4.3 (mijl) - 7 (km)
Vliegveld
Vliegveld code EHRD

Locatie : Rotterdam The Hague Airport
Afstand: 19 (km)

Metar:
EHRD 210125Z AUTO VRB01KT 7000 NSC 07/07 Q1028 NOSIG

Tijd: 21-09-2021 03:25 CEST